Time;durP1;ratioP1;P1;durP2;ratioP2;P2;SDS_P1;SDS_P2;PMS_P1;PMS_P2;Temp;Humidity;BMP_temperature;BMP_pressure;BME280_temperature;BME280_humidity;BME280_pressure;Samples;Min_cycle;Max_cycle;Signal;HPM_P1;HPM_P2
2023/04/15 00:01:27;;;;;;;6.45;3.67;;;;;;;23.57;37.68;101225.91;5012923;28;20026;-48
2023/04/15 00:03:56;;;;;;;6.93;3.47;;;;;;;23.51;37.96;101221.44;5012909;28;20061;-50
2023/04/15 00:06:25;;;;;;;6.57;3.30;;;;;;;23.55;37.61;101239.00;5012730;28;20026;-48
2023/04/15 00:08:53;;;;;;;7.05;3.63;;;;;;;23.55;37.48;101239.00;5012778;28;20400;-48
2023/04/15 00:11:23;;;;;;;6.53;3.72;;;;;;;23.58;37.40;101235.53;5012677;28;20034;-48
2023/04/15 00:13:51;;;;;;;5.43;3.05;;;;;;;23.54;37.75;101239.84;5012669;28;20104;-58
2023/04/15 00:16:20;;;;;;;5.90;2.75;;;;;;;23.55;37.73;101248.56;5012960;28;20029;-53
2023/04/15 00:18:48;;;;;;;4.35;2.63;;;;;;;23.50;37.72;101257.22;5012864;28;20044;-57
2023/04/15 00:21:17;;;;;;;4.50;2.75;;;;;;;23.50;37.79;101256.34;5012576;28;20030;-49
2023/04/15 00:23:51;;;;;;;5.05;2.60;;;;;;;23.55;37.65;101264.28;5013025;28;20025;-49
2023/04/15 00:26:20;;;;;;;4.20;2.22;;;;;;;23.53;37.42;101279.97;5012685;28;20123;-57
2023/04/15 00:28:48;;;;;;;5.78;2.95;;;;;;;23.48;37.74;101272.03;5012387;28;20053;-55
2023/04/15 00:31:17;;;;;;;5.05;2.83;;;;;;;23.52;37.76;101275.59;5012505;28;20026;-48
2023/04/15 00:33:45;;;;;;;4.78;2.47;;;;;;;23.49;37.28;101267.66;5012352;28;20099;-48
2023/04/15 00:36:14;;;;;;;4.50;2.25;;;;;;;23.44;37.56;101275.44;5012300;28;20387;-48
2023/04/15 00:38:43;;;;;;;4.45;2.45;;;;;;;23.44;37.78;101280.69;5012475;28;20030;-48
2023/04/15 00:41:11;;;;;;;6.28;2.67;;;;;;;23.41;37.62;101278.00;5014978;28;20076;-47
2023/04/15 00:43:39;;;;;;;6.97;2.58;;;;;;;23.38;37.68;101284.91;5015886;28;20034;-47
2023/04/15 00:46:08;;;;;;;7.00;2.80;;;;;;;23.40;37.75;101286.69;5015944;28;20490;-56
2023/04/15 00:48:37;;;;;;;6.75;2.88;;;;;;;23.41;37.78;101280.59;5016233;28;20530;-49
2023/04/15 00:51:06;;;;;;;6.72;3.05;;;;;;;23.42;37.45;101285.00;4998722;28;20030;-46
2023/04/15 00:53:35;;;;;;;4.45;3.05;;;;;;;23.40;37.54;101289.31;5015789;28;20608;-46
2023/04/15 00:56:03;;;;;;;8.32;3.63;;;;;;;23.36;37.53;101292.72;5015795;28;20033;-47
2023/04/15 00:58:32;;;;;;;5.68;3.05;;;;;;;23.32;37.44;101289.16;5015759;28;20135;-51
2023/04/15 01:01:01;;;;;;;6.07;3.30;;;;;;;23.31;37.95;101291.75;5015105;28;20067;-57
2023/04/15 01:03:30;;;;;;;5.80;2.97;;;;;;;23.34;37.76;101297.03;5016009;28;20111;-47
2023/04/15 01:05:59;;;;;;;7.22;3.10;;;;;;;23.35;37.85;101304.03;5015557;28;20041;-47
2023/04/15 01:08:28;;;;;;;4.72;2.53;;;;;;;23.32;37.67;101299.63;5015675;28;20037;-49
2023/04/15 01:11:02;;;;;;;6.82;2.90;;;;;;;23.34;37.93;101299.66;5015197;28;20032;-46
2023/04/15 01:13:31;;;;;;;6.00;2.90;;;;;;;23.31;37.63;101297.84;5015727;28;20042;-55
2023/04/15 01:15:59;;;;;;;8.98;3.00;;;;;;;23.32;37.35;101301.38;4998007;28;20030;-49
2023/04/15 01:18:28;;;;;;;5.30;2.47;;;;;;;23.32;37.44;101310.09;5015251;28;20033;-55
2023/04/15 01:20:57;;;;;;;8.27;3.78;;;;;;;23.32;37.41;101304.88;5015282;28;20509;-53
2023/04/15 01:23:25;;;;;;;6.22;3.15;;;;;;;23.31;37.38;101312.69;5015328;28;20487;-50
2023/04/15 01:25:54;;;;;;;5.05;2.40;;;;;;;23.32;37.86;101312.72;5015478;28;20038;-49
2023/04/15 01:28:22;;;;;;;6.97;2.53;;;;;;;23.30;37.73;101311.78;5015260;28;20133;-48
2023/04/15 01:30:51;;;;;;;5.55;2.35;;;;;;;23.28;37.48;101323.97;5014909;28;20034;-57
2023/04/15 01:33:20;;;;;;;5.20;2.25;;;;;;;23.27;37.77;101313.47;4997684;28;20089;-49
2023/04/15 01:35:48;;;;;;;5.65;2.40;;;;;;;23.30;37.72;101324.00;5015108;28;20480;-56
2023/04/15 01:38:17;;;;;;;4.20;2.20;;;;;;;23.29;37.65;101317.00;5014740;28;20032;-48
2023/04/15 01:40:45;;;;;;;5.43;2.33;;;;;;;23.25;37.90;101325.63;5014872;28;20180;-52
2023/04/15 01:43:14;;;;;;;4.07;2.25;;;;;;;23.23;37.25;101320.38;5015209;28;20041;-56
2023/04/15 01:45:42;;;;;;;3.92;2.13;;;;;;;23.25;37.40;101325.63;5015058;28;20521;-48
2023/04/15 01:48:11;;;;;;;5.07;2.10;;;;;;;23.23;37.73;101329.94;5014442;28;20037;-48
2023/04/15 01:50:39;;;;;;;5.40;2.00;;;;;;;23.20;37.51;101321.19;5015026;28;20026;-48
2023/04/15 01:53:08;;;;;;;3.85;2.08;;;;;;;23.20;37.83;101320.28;4997120;28;20391;-49
2023/04/15 01:55:36;;;;;;;5.40;1.98;;;;;;;23.20;37.50;101329.03;5014893;28;20037;-49
2023/04/15 01:58:05;;;;;;;5.70;2.42;;;;;;;23.18;37.45;101333.31;5014183;28;20026;-51
2023/04/15 02:00:34;;;;;;;8.05;2.50;;;;;;;23.15;37.63;101337.59;5014783;28;20428;-52
2023/04/15 02:03:02;;;;;;;4.93;2.80;;;;;;;23.15;37.60;101332.38;5014633;28;20402;-53
2023/04/15 02:05:31;;;;;;;5.57;2.33;;;;;;;23.15;37.88;101335.88;5014535;28;20037;-47
2023/04/15 02:07:58;;;;;;;6.45;2.80;;;;;;;23.17;37.49;101341.13;5014227;28;20083;-49
2023/04/15 02:10:27;;;;;;;7.85;2.78;;;;;;;23.20;37.75;101334.25;5014463;28;20483;-48
2023/04/15 02:12:56;;;;;;;5.53;2.63;;;;;;;23.15;37.77;101348.06;5014383;28;20030;-48
2023/04/15 02:15:23;;;;;;;5.07;2.60;;;;;;;23.12;37.46;101348.00;5015041;28;20104;-57
2023/04/15 02:17:54;;;;;;;5.35;2.42;;;;;;;23.13;37.91;101360.22;5014081;28;20030;-51
2023/04/15 02:20:23;;;;;;;4.05;2.08;;;;;;;23.11;37.78;101368.06;4996676;28;20033;-57
2023/04/15 02:22:51;;;;;;;7.32;2.90;;;;;;;23.13;37.63;101369.00;5014418;28;20372;-48
2023/04/15 02:25:20;;;;;;;4.82;2.00;;;;;;;23.14;37.50;101378.59;5014691;28;20046;-48
2023/04/15 02:27:48;;;;;;;4.43;2.10;;;;;;;23.15;37.76;101374.25;5014068;28;20038;-49
2023/04/15 02:30:17;;;;;;;5.35;2.75;;;;;;;23.12;37.72;101374.16;5013837;28;20034;-47
2023/04/15 02:32:45;;;;;;;3.72;1.90;;;;;;;23.13;37.46;101378.56;5013824;28;20078;-52
2023/04/15 02:35:14;;;;;;;4.95;2.03;;;;;;;23.15;37.54;101384.72;5013460;28;20033;-47
2023/04/15 02:37:44;;;;;;;4.78;2.03;;;;;;;23.10;37.58;101387.22;5013940;28;20030;-52
2023/04/15 02:40:14;;;;;;;4.63;2.20;;;;;;;23.10;37.70;101389.84;5013643;28;20508;-48
2023/04/15 02:42:43;;;;;;;6.72;2.25;;;;;;;23.14;37.30;101389.06;5013848;28;20042;-49
2023/04/15 02:45:11;;;;;;;4.35;2.20;;;;;;;23.14;37.52;101391.69;5014043;28;20029;-48
2023/04/15 02:47:40;;;;;;;5.72;1.88;;;;;;;23.11;37.75;101396.84;4996297;28;20033;-47
2023/04/15 02:50:11;;;;;;;3.10;1.65;;;;;;;23.10;37.73;101400.31;5013934;28;20475;-57
2023/04/15 02:52:41;;;;;;;4.78;1.90;;;;;;;23.12;37.53;101403.84;5013442;28;20156;-48
2023/04/15 02:55:09;;;;;;;6.43;2.25;;;;;;;23.13;37.25;101408.25;5013407;28;20037;-56
2023/04/15 02:57:39;;;;;;;4.35;1.63;;;;;;;23.15;37.45;101413.50;5013597;28;20045;-47
2023/04/15 03:00:10;;;;;;;3.45;1.83;;;;;;;23.08;37.94;101412.47;5013851;28;20364;-48
2023/04/15 03:02:40;;;;;;;4.05;2.05;;;;;;;23.06;37.45;101407.22;5013043;28;20151;-49
2023/04/15 03:05:13;;;;;;;6.75;1.75;;;;;;;23.13;37.74;101423.03;5013236;28;20061;-48
2023/04/15 03:07:42;;;;;;;4.70;1.73;;;;;;;23.10;37.62;101415.09;5013509;28;20030;-47
2023/04/15 03:10:11;;;;;;;4.28;2.00;;;;;;;23.09;37.53;101419.47;5013698;28;20029;-47
2023/04/15 03:12:40;;;;;;;3.83;1.92;;;;;;;23.06;37.72;101424.63;5013759;28;20017;-49
2023/04/15 03:15:09;;;;;;;4.72;2.22;;;;;;;23.07;37.36;101421.16;5012884;28;20081;-50
2023/04/15 03:17:38;;;;;;;7.35;3.00;;;;;;;22.99;37.66;101413.13;5013671;28;20022;-48
2023/04/15 03:20:08;;;;;;;4.85;2.28;;;;;;;23.08;37.55;101419.44;5013643;28;20310;-47
2023/04/15 03:22:37;;;;;;;6.40;2.80;;;;;;;23.05;37.31;101426.38;5013436;28;20067;-48
2023/04/15 03:25:06;;;;;;;5.75;2.20;;;;;;;23.06;37.70;101436.00;5013190;28;20076;-49
2023/04/15 03:27:34;;;;;;;3.15;1.98;;;;;;;23.05;37.77;101430.72;5013050;28;20029;-49
2023/04/15 03:30:03;;;;;;;6.00;2.45;;;;;;;23.04;37.57;101436.78;5012813;28;20057;-48
2023/04/15 03:32:32;;;;;;;5.97;2.58;;;;;;;23.12;37.50;101437.88;5013030;28;20105;-49
2023/04/15 03:35:01;;;;;;;5.10;2.40;;;;;;;23.10;37.20;101436.94;5013499;28;20034;-49
2023/04/15 03:37:29;;;;;;;3.55;1.83;;;;;;;23.06;37.38;101433.38;4995356;28;20044;-49
2023/04/15 03:39:58;;;;;;;5.00;2.13;;;;;;;23.02;37.28;101431.53;4995737;28;20494;-48
2023/04/15 03:42:27;;;;;;;4.25;2.28;;;;;;;23.02;37.51;101444.63;5013048;28;20030;-48
2023/04/15 03:44:55;;;;;;;3.67;2.08;;;;;;;23.00;37.45;101440.19;5012851;28;20038;-50
2023/04/15 03:47:24;;;;;;;5.22;2.33;;;;;;;23.02;37.57;101451.56;5013415;28;20026;-52
2023/04/15 03:49:53;;;;;;;5.38;2.05;;;;;;;23.03;37.16;101450.72;5013467;28;20026;-51
2023/04/15 03:52:22;;;;;;;6.25;2.40;;;;;;;23.05;37.19;101456.88;5013081;28;20475;-54
2023/04/15 03:54:51;;;;;;;5.18;2.58;;;;;;;23.07;37.28;101455.19;5013184;28;20033;-51
2023/04/15 03:57:19;;;;;;;3.78;1.95;;;;;;;23.08;37.44;101456.97;5013237;28;20105;-49
2023/04/15 03:59:48;;;;;;;5.57;1.63;;;;;;;23.06;37.31;101453.41;4995370;28;20383;-48
2023/04/15 04:02:18;;;;;;;5.68;2.00;;;;;;;23.03;37.22;101458.56;5012855;28;20030;-49
2023/04/15 04:04:46;;;;;;;3.78;1.70;;;;;;;23.02;37.51;101468.16;5013476;28;20353;-48
2023/04/15 04:07:16;;;;;;;2.92;1.67;;;;;;;22.97;37.69;101467.16;5012829;28;20037;-49
2023/04/15 04:09:45;;;;;;;4.50;1.77;;;;;;;22.99;37.34;101461.97;5012722;28;20076;-54
2023/04/15 04:12:14;;;;;;;3.50;1.88;;;;;;;22.96;37.46;101470.63;5013193;28;20026;-48
2023/04/15 04:14:43;;;;;;;4.20;2.03;;;;;;;23.01;37.09;101466.38;5013313;28;20037;-48
2023/04/15 04:17:12;;;;;;;2.83;1.30;;;;;;;23.02;37.06;101475.13;5016560;28;20497;-48
2023/04/15 04:19:40;;;;;;;2.08;1.50;;;;;;;23.04;36.96;101471.72;5016474;28;20073;-48
2023/04/15 04:22:09;;;;;;;5.00;2.80;;;;;;;23.02;37.23;101467.25;5016291;28;20026;-48
2023/04/15 04:24:38;;;;;;;10.50;3.22;;;;;;;23.01;37.19;101471.63;5016661;28;20491;-48
2023/04/15 04:27:07;;;;;;;3.35;2.30;;;;;;;23.00;37.12;101476.84;5016012;28;20041;-48
2023/04/15 04:29:35;;;;;;;5.20;2.47;;;;;;;22.99;37.33;101467.22;5016084;28;20046;-50
2023/04/15 04:32:04;;;;;;;5.10;2.50;;;;;;;23.02;37.06;101478.63;5016025;28;20037;-52
2023/04/15 04:34:32;;;;;;;4.68;2.25;;;;;;;23.05;36.81;101483.94;4999118;28;20104;-48
2023/04/15 04:37:01;;;;;;;4.57;2.83;;;;;;;23.04;37.10;101487.41;4998559;28;20037;-48
2023/04/15 04:39:29;;;;;;;4.05;2.42;;;;;;;23.06;37.26;101492.66;5016004;28;20018;-49
2023/04/15 04:41:58;;;;;;;3.33;1.98;;;;;;;23.02;36.85;101494.34;5016304;28;20083;-57
2023/04/15 04:44:27;;;;;;;3.92;2.33;;;;;;;23.04;37.12;101500.50;5015841;28;20113;-50
2023/04/15 04:46:55;;;;;;;3.45;1.85;;;;;;;23.01;36.90;101497.78;5016005;28;20113;-58
2023/04/15 04:49:24;;;;;;;2.60;1.58;;;;;;;22.98;37.35;101495.09;5015823;28;20022;-49
2023/04/15 04:51:53;;;;;;;3.65;1.80;;;;;;;22.99;37.09;101501.22;4998896;28;20037;-48
2023/04/15 04:54:22;;;;;;;4.20;1.80;;;;;;;22.95;37.05;101499.38;5015452;28;20041;-48
2023/04/15 04:56:51;;;;;;;4.32;1.90;;;;;;;22.90;37.17;101510.59;5015839;28;20021;-48
2023/04/15 04:59:19;;;;;;;3.65;1.98;;;;;;;22.99;36.92;101519.53;5015610;28;20022;-49
2023/04/15 05:01:48;;;;;;;3.42;1.77;;;;;;;22.98;36.81;101523.00;5015755;28;20037;-48
2023/04/15 05:04:17;;;;;;;5.00;1.95;;;;;;;22.99;36.87;101522.16;5015632;28;20029;-48
2023/04/15 05:06:45;;;;;;;2.97;1.70;;;;;;;23.01;37.18;101531.81;5015487;28;20032;-49
2023/04/15 05:09:14;;;;;;;3.63;1.77;;;;;;;22.98;37.03;101533.47;5015489;28;20050;-51
2023/04/15 05:11:43;;;;;;;4.18;1.88;;;;;;;22.95;37.16;101538.63;5015782;28;20076;-53
2023/04/15 05:14:11;;;;;;;2.65;1.40;;;;;;;22.95;37.09;101536.88;5015033;28;20034;-52
2023/04/15 05:16:40;;;;;;;3.20;1.95;;;;;;;22.97;37.21;101536.94;5015299;28;20057;-51
2023/04/15 05:19:08;;;;;;;3.05;1.52;;;;;;;22.99;37.03;101537.84;5015486;28;20086;-54
2023/04/15 05:21:37;;;;;;;2.50;1.50;;;;;;;23.01;36.92;101539.66;5015417;28;20108;-48
2023/04/15 05:24:05;;;;;;;5.18;1.88;;;;;;;22.94;37.12;101556.03;5015506;28;20025;-49
2023/04/15 05:26:34;;;;;;;4.72;1.70;;;;;;;22.89;37.29;101548.06;5014994;28;20057;-52
2023/04/15 05:29:03;;;;;;;5.47;2.13;;;;;;;22.95;37.20;101556.94;5029920;28;20045;-49
2023/04/15 05:31:31;;;;;;;6.05;1.60;;;;;;;22.92;36.99;101557.72;5034980;28;20101;-50
2023/04/15 05:33:59;;;;;;;3.55;1.40;;;;;;;22.92;36.70;101563.84;5035439;28;20501;-49
2023/04/15 05:36:28;;;;;;;4.68;1.52;;;;;;;22.94;36.73;101568.25;5034944;28;20032;-56
2023/04/15 05:38:56;;;;;;;3.08;1.77;;;;;;;22.96;36.81;101561.31;5034842;28;20030;-48
2023/04/15 05:41:24;;;;;;;2.78;1.52;;;;;;;22.97;36.60;101579.66;5034985;28;20076;-50
2023/04/15 05:43:53;;;;;;;3.15;1.30;;;;;;;22.96;36.84;101577.03;5035249;28;20104;-51
2023/04/15 05:46:21;;;;;;;2.90;1.45;;;;;;;22.90;36.80;101578.63;5034830;28;20487;-49
2023/04/15 05:48:50;;;;;;;3.25;1.60;;;;;;;22.87;37.19;101585.50;5034671;28;20075;-49
2023/04/15 05:51:18;;;;;;;4.28;1.50;;;;;;;22.88;37.29;101588.16;5034506;28;20030;-52
2023/04/15 05:53:47;;;;;;;3.47;1.55;;;;;;;22.91;37.13;101598.69;5034594;28;20033;-48
2023/04/15 05:56:15;;;;;;;6.57;2.30;;;;;;;22.88;36.71;101602.97;5034997;28;20406;-49
2023/04/15 05:58:44;;;;;;;6.63;2.53;;;;;;;22.88;36.70;101609.06;5034158;28;20060;-49
2023/04/15 06:01:13;;;;;;;6.35;2.50;;;;;;;22.89;36.58;101603.00;5034448;28;20043;-51
2023/04/15 06:03:41;;;;;;;5.95;2.53;;;;;;;22.93;36.89;101609.19;5017231;28;20042;-57
2023/04/15 06:06:10;;;;;;;4.78;2.22;;;;;;;22.94;36.46;101613.59;5034275;28;20061;-55
2023/04/15 06:08:39;;;;;;;7.70;2.50;;;;;;;22.97;36.82;101623.28;5034144;28;20029;-48
2023/04/15 06:11:07;;;;;;;4.32;2.40;;;;;;;22.94;36.59;101617.94;5034346;28;20026;-48
2023/04/15 06:13:36;;;;;;;6.70;2.22;;;;;;;22.91;36.76;101622.25;5034126;28;20029;-49
2023/04/15 06:16:05;;;;;;;5.00;2.22;;;;;;;22.95;36.46;101622.34;5034541;28;20033;-54
2023/04/15 06:18:33;;;;;;;5.03;2.30;;;;;;;22.98;36.73;101627.66;5033758;28;20408;-50
2023/04/15 06:21:04;;;;;;;4.22;2.15;;;;;;;23.00;36.50;101634.69;5034429;28;20018;-47
2023/04/15 06:23:35;;;;;;;7.63;2.15;;;;;;;23.03;36.79;101633.88;5033310;28;20039;-48
2023/04/15 06:26:03;;;;;;;10.35;2.20;;;;;;;23.04;36.73;101641.81;5016181;28;20053;-49
2023/04/15 06:28:32;;;;;;;4.63;2.00;;;;;;;23.05;36.55;101642.66;5033664;28;20026;-48
2023/04/15 06:31:00;;;;;;;6.97;2.42;;;;;;;23.13;36.24;101648.13;5032828;28;20048;-47
2023/04/15 06:33:29;;;;;;;7.82;2.05;;;;;;;23.12;36.40;101647.25;5033781;28;20482;-56
2023/04/15 06:35:58;;;;;;;5.25;1.80;;;;;;;23.10;36.29;101662.00;5016564;28;20116;-49
2023/04/15 06:38:26;;;;;;;8.00;2.20;;;;;;;23.16;36.28;101659.59;5015218;28;20446;-49
2023/04/15 06:40:55;;;;;;;7.78;2.53;;;;;;;23.21;36.70;101662.34;5016190;28;20030;-48
2023/04/15 06:43:23;;;;;;;5.47;1.85;;;;;;;23.23;36.43;101659.75;5033674;28;20033;-48
2023/04/15 06:45:52;;;;;;;7.82;2.22;;;;;;;23.29;36.49;101673.03;5016481;28;20379;-47
2023/04/15 06:48:21;;;;;;;7.70;2.38;;;;;;;23.33;36.66;101669.66;5033834;28;20049;-47
2023/04/15 06:50:50;;;;;;;7.53;2.00;;;;;;;23.37;36.62;101668.88;5015871;28;20391;-53
2023/04/15 06:53:19;;;;;;;10.05;1.80;;;;;;;23.40;36.62;101674.19;5033202;28;20030;-50
2023/04/15 06:55:48;;;;;;;6.55;2.15;;;;;;;23.44;36.55;101678.69;5033401;28;20108;-50
2023/04/15 06:58:17;;;;;;;4.63;1.70;;;;;;;23.49;36.59;101677.06;5033241;28;20070;-58
2023/04/15 07:00:45;;;;;;;5.25;2.10;;;;;;;23.54;36.39;101678.91;5033072;28;20037;-48
2023/04/15 07:03:14;;;;;;;7.30;2.88;;;;;;;23.59;36.73;101682.53;5016157;28;20032;-49
2023/04/15 07:05:43;;;;;;;5.90;2.65;;;;;;;23.62;36.70;101691.34;5033175;28;20029;-49
2023/04/15 07:08:11;;;;;;;6.95;2.33;;;;;;;23.64;36.46;101697.53;5033055;28;20506;-49
2023/04/15 07:10:40;;;;;;;5.63;2.55;;;;;;;23.67;36.51;101701.94;5033384;28;20030;-50
2023/04/15 07:13:09;;;;;;;5.75;2.10;;;;;;;23.71;36.56;101703.81;5084248;23;20045;-49
2023/04/15 07:15:37;;;;;;;9.00;2.83;;;;;;;23.81;36.58;101710.16;5033605;28;20029;-57
2023/04/15 07:18:06;;;;;;;4.68;1.83;;;;;;;23.83;36.48;101718.97;5033330;28;20152;-50
2023/04/15 07:20:35;;;;;;;6.93;2.50;;;;;;;23.91;36.44;101721.78;5033010;28;20029;-48
2023/04/15 07:23:04;;;;;;;6.55;2.22;;;;;;;23.94;36.88;101725.34;5033299;28;20056;-48
2023/04/15 07:25:32;;;;;;;4.55;1.88;;;;;;;23.97;36.83;101724.59;5015469;28;20483;-48
2023/04/15 07:28:01;;;;;;;7.10;2.00;;;;;;;24.01;36.40;101726.41;5032684;28;20029;-48
2023/04/15 07:30:30;;;;;;;6.68;1.92;;;;;;;24.01;36.73;101723.78;5032872;28;20083;-48
2023/04/15 07:32:59;;;;;;;5.65;2.17;;;;;;;24.03;36.62;101735.19;5033166;28;20036;-53
2023/04/15 07:35:28;;;;;;;3.80;1.90;;;;;;;24.06;36.64;101740.53;5032748;28;20025;-49
2023/04/15 07:37:56;;;;;;;6.32;2.05;;;;;;;24.07;36.85;101742.31;5032488;28;20471;-52
2023/04/15 07:40:25;;;;;;;10.32;2.40;;;;;;;23.99;36.98;101742.97;5032461;28;20044;-49
2023/04/15 07:42:57;;;;;;;8.40;2.08;;;;;;;23.91;36.98;101740.13;5032912;28;20033;-51
2023/04/15 07:45:26;;;;;;;7.82;2.15;;;;;;;23.88;36.99;101737.41;5015590;28;20463;-49
2023/04/15 07:47:55;;;;;;;11.25;2.58;;;;;;;23.87;36.66;101738.25;5032228;28;20033;-48
2023/04/15 07:50:23;;;;;;;9.15;2.20;;;;;;;23.87;36.44;101749.63;5036086;28;20525;-57
2023/04/15 07:52:52;;;;;;;13.05;2.55;;;;;;;23.85;36.83;101753.03;5036942;28;20108;-48
2023/04/15 07:55:22;;;;;;;10.30;2.47;;;;;;;23.87;36.82;101756.59;5019521;28;20025;-49
2023/04/15 07:57:51;;;;;;;8.32;2.30;;;;;;;23.88;36.66;101761.91;5036774;28;20498;-49
2023/04/15 08:00:19;;;;;;;10.20;2.58;;;;;;;23.87;36.52;101752.25;5036229;28;20029;-49
2023/04/15 08:02:48;;;;;;;11.68;2.70;;;;;;;23.89;36.46;101753.19;5036916;28;20386;-52
2023/04/15 08:05:17;;;;;;;10.93;2.53;;;;;;;23.89;36.51;101758.44;5036629;28;20032;-57
2023/04/15 08:07:45;;;;;;;10.45;2.45;;;;;;;23.91;36.39;101761.94;5036849;28;20126;-55
2023/04/15 08:10:14;;;;;;;7.03;2.13;;;;;;;23.82;36.16;101735.53;5018634;28;20033;-49
2023/04/15 08:12:43;;;;;;;10.80;2.70;;;;;;;23.94;36.04;101762.03;5002603;28;20487;-49
2023/04/15 08:15:12;;;;;;;6.55;1.95;;;;;;;23.95;36.39;101758.56;5036518;28;20104;-52
2023/04/15 08:17:40;;;;;;;10.75;2.47;;;;;;;23.99;36.20;101766.53;5036482;28;20026;-53
2023/04/15 08:20:09;;;;;;;8.00;2.53;;;;;;;24.00;36.32;101768.31;5036309;28;20386;-49
2023/04/15 08:22:38;;;;;;;10.45;2.40;;;;;;;24.02;36.15;101772.75;5036338;28;20383;-52
2023/04/15 08:25:07;;;;;;;12.32;2.30;;;;;;;24.00;36.41;101774.44;5036524;28;20359;-48
2023/04/15 08:27:36;;;;;;;11.80;2.35;;;;;;;24.00;36.44;101769.19;5036129;28;20429;-48
2023/04/15 08:30:05;;;;;;;8.27;2.10;;;;;;;24.00;36.26;101777.06;5036205;28;20430;-51
2023/04/15 08:32:33;;;;;;;12.27;2.28;;;;;;;24.02;36.25;101787.59;5036243;28;20025;-49
2023/04/15 08:35:02;;;;;;;16.20;2.63;;;;;;;24.03;36.09;101787.63;5036312;28;20036;-53
2023/04/15 08:37:31;;;;;;;11.43;2.25;;;;;;;24.03;35.88;101792.88;5018407;28;20033;-49
2023/04/15 08:39:58;;;;;;;10.73;2.30;;;;;;;24.07;35.94;101791.25;5036065;28;20026;-51
2023/04/15 08:42:31;;;;;;;9.77;2.10;;;;;;;24.07;35.95;101794.72;5036077;28;20487;-48
2023/04/15 08:45:01;;;;;;;11.38;2.08;;;;;;;24.08;35.81;101788.63;5017907;28;20053;-49
2023/04/15 08:47:30;;;;;;;15.55;2.92;;;;;;;24.10;35.94;101793.91;5035834;28;20032;-50
2023/04/15 08:49:59;;;;;;;9.75;2.33;;;;;;;24.06;35.91;101800.81;5036081;28;20029;-48
2023/04/15 08:52:30;;;;;;;7.20;1.80;;;;;;;24.13;35.74;101799.25;5017849;28;20022;-55
2023/04/15 08:54:59;;;;;;;11.25;2.45;;;;;;;24.12;35.41;101798.38;5018618;28;20090;-50
2023/04/15 08:57:29;;;;;;;10.05;2.38;;;;;;;24.08;35.41;101796.50;5035753;28;20103;-49
2023/04/15 08:59:58;;;;;;;8.38;2.13;;;;;;;24.10;35.81;101805.31;5035774;28;20372;-48
2023/04/15 09:02:27;;;;;;;8.50;2.33;;;;;;;24.08;35.38;101796.50;5017200;28;20414;-50
2023/04/15 09:04:55;;;;;;;15.35;2.67;;;;;;;24.09;35.64;101802.63;5035130;28;20025;-50
2023/04/15 09:07:24;;;;;;;10.05;2.15;;;;;;;24.10;35.27;101812.25;5035349;28;20033;-51
2023/04/15 09:09:53;;;;;;;8.70;2.40;;;;;;;24.12;35.46;101805.31;5018019;28;20102;-50
2023/04/15 09:12:21;;;;;;;7.63;1.80;;;;;;;24.14;35.04;101815.88;5035101;28;20029;-51
2023/04/15 09:14:51;;;;;;;8.40;3.10;;;;;;;24.14;34.97;101821.97;5035339;28;20029;-57
2023/04/15 09:17:20;;;;;;;13.07;3.15;;;;;;;24.14;35.02;101827.22;5035387;28;20037;-51
2023/04/15 09:19:49;;;;;;;14.13;3.40;;;;;;;24.15;34.87;101826.38;5035129;28;20494;-52
2023/04/15 09:22:21;;;;;;;10.40;2.60;;;;;;;24.10;34.70;101821.03;5018217;28;20025;-49
2023/04/15 09:24:50;;;;;;;11.27;3.05;;;;;;;24.13;34.42;101830.69;5017798;28;20037;-50
2023/04/15 09:27:19;;;;;;;12.38;3.17;;;;;;;24.14;34.41;101829.84;5035297;28;20157;-48
2023/04/15 09:29:51;;;;;;;9.68;2.33;;;;;;;24.12;34.72;101831.53;5035031;28;20021;-49
2023/04/15 09:32:22;;;;;;;9.77;2.50;;;;;;;24.16;34.18;101845.63;5017859;28;20029;-49
2023/04/15 09:34:51;;;;;;;9.82;2.08;;;;;;;24.16;34.50;101845.63;5034572;28;20545;-52
2023/04/15 09:37:19;;;;;;;7.82;2.35;;;;;;;24.17;34.20;101850.91;5034999;28;20041;-48
2023/04/15 09:39:51;;;;;;;9.23;2.45;;;;;;;24.17;34.39;101847.38;5016743;28;20025;-57
2023/04/15 09:42:25;;;;;;;7.22;2.67;;;;;;;24.17;34.28;101855.25;5034580;28;20025;-58
2023/04/15 09:44:53;;;;;;;8.73;2.55;;;;;;;24.16;34.04;101857.00;5034884;28;20036;-48
2023/04/15 09:47:32;;;;;;;8.07;2.85;;;;;;;24.17;34.36;101852.63;5017245;28;20030;-48
2023/04/15 09:50:02;;;;;;;7.75;2.70;;;;;;;24.16;34.05;101845.63;5034779;28;20025;-54
2023/04/15 09:52:31;;;;;;;10.60;3.15;;;;;;;24.16;33.83;101850.88;5034910;28;20548;-52
2023/04/15 09:55:00;;;;;;;13.77;3.67;;;;;;;24.20;33.30;101852.72;5034534;28;20053;-56
2023/04/15 09:57:40;;;;;;;16.83;3.95;;;;;;;24.18;33.72;101857.03;5034500;28;20026;-56
2023/04/15 10:00:10;;;;;;;10.05;2.78;;;;;;;24.20;33.87;101866.72;5034488;28;20471;-49
2023/04/15 10:02:41;;;;;;;7.65;2.17;;;;;;;24.25;33.19;101854.59;5034360;28;20466;-52
2023/04/15 10:05:11;;;;;;;10.10;2.53;;;;;;;24.27;33.46;101854.66;5034703;28;20028;-51
2023/04/15 10:07:40;;;;;;;9.98;2.92;;;;;;;24.18;33.01;101865.78;5034397;28;20025;-50
2023/04/15 10:10:09;;;;;;;11.48;2.95;;;;;;;24.14;33.24;101857.81;5034664;28;20028;-52
2023/04/15 10:12:39;;;;;;;6.03;1.90;;;;;;;24.10;32.78;101862.06;5033205;28;20033;-49
2023/04/15 10:15:08;;;;;;;9.07;2.20;;;;;;;24.12;32.82;101871.75;5015690;28;20029;-51
2023/04/15 10:17:37;;;;;;;8.75;2.05;;;;;;;24.17;32.88;101874.50;5033817;28;20537;-49
2023/04/15 10:20:09;;;;;;;8.30;2.47;;;;;;;24.16;33.12;101877.09;5034329;28;20057;-50
2023/04/15 10:22:38;;;;;;;7.65;1.90;;;;;;;24.15;32.89;101885.81;5032816;28;20040;-49
2023/04/15 10:25:07;;;;;;;8.07;2.55;;;;;;;24.17;33.25;101876.22;5033940;28;20040;-50
2023/04/15 10:27:37;;;;;;;10.20;2.60;;;;;;;24.15;32.57;101881.44;5034102;28;20084;-48
2023/04/15 10:30:06;;;;;;;7.75;2.17;;;;;;;24.10;32.79;101888.28;5034197;28;20045;-50
2023/04/15 10:32:35;;;;;;;10.70;1.80;;;;;;;24.11;33.32;101887.44;5033224;28;20112;-48
2023/04/15 10:35:06;;;;;;;10.27;2.80;;;;;;;24.08;32.99;101896.13;5033597;28;20386;-48
2023/04/15 10:37:37;;;;;;;4.28;1.55;;;;;;;24.09;32.79;101900.50;5033473;28;20033;-52
2023/04/15 10:40:26;;;;;;;7.22;1.90;;;;;;;24.07;33.64;101890.84;5015985;28;20040;-56
2023/04/15 10:42:55;;;;;;;6.75;1.95;;;;;;;24.05;33.41;101898.66;5033607;28;20091;-48
2023/04/15 10:45:27;;;;;;;8.32;2.20;;;;;;;24.04;33.03;101894.25;5033639;28;20033;-48
2023/04/15 10:47:56;;;;;;;5.88;1.90;;;;;;;24.05;32.97;101893.41;5034324;28;20030;-48
2023/04/15 10:50:28;;;;;;;6.47;1.73;;;;;;;24.04;32.84;101894.25;5033620;28;20088;-49
2023/04/15 10:52:57;;;;;;;4.28;1.33;;;;;;;24.04;32.90;101899.50;5033416;28;20034;-56
2023/04/15 10:55:27;;;;;;;5.60;1.50;;;;;;;24.04;32.73;101891.63;5033353;28;20025;-47
2023/04/15 10:58:00;;;;;;;6.25;1.48;;;;;;;24.06;32.60;101889.06;5015382;28;20064;-48
2023/04/15 11:00:31;;;;;;;6.28;2.08;;;;;;;24.05;33.22;101895.16;5033276;28;20025;-48
2023/04/15 11:03:06;;;;;;;5.13;1.20;;;;;;;24.06;32.39;101889.06;5023315;28;20034;-51
2023/04/15 11:05:53;;;;;;;8.25;1.30;;;;;;;24.07;32.76;101885.59;5027567;28;20029;-48
2023/04/15 11:08:22;;;;;;;5.07;1.30;;;;;;;24.08;32.68;101889.97;5028562;28;20439;-49
2023/04/15 11:10:50;;;;;;;4.93;1.40;;;;;;;24.07;32.67;101889.09;5014979;28;20037;-48
2023/04/15 11:13:21;;;;;;;4.97;1.40;;;;;;;24.08;33.17;101896.13;5032168;28;20447;-52
2023/04/15 11:15:50;;;;;;;6.53;1.48;;;;;;;24.10;32.96;101899.66;5032432;28;20476;-48
2023/04/15 11:18:25;;;;;;;4.65;1.15;;;;;;;24.10;33.33;101894.44;5027691;28;20036;-48
2023/04/15 11:20:55;;;;;;;5.15;1.33;;;;;;;24.11;33.17;101890.06;5028717;28;20021;-49
2023/04/15 11:23:45;;;;;;;3.97;1.10;;;;;;;24.14;33.60;101894.50;5028796;28;20033;-49
2023/04/15 11:26:14;;;;;;;5.55;1.35;;;;;;;24.13;33.08;101901.47;5007915;28;20056;-52
2023/04/15 11:28:43;;;;;;;7.13;1.30;;;;;;;24.15;33.04;101896.28;5025398;28;20467;-50
2023/04/15 11:31:12;;;;;;;6.20;1.48;;;;;;;24.12;33.25;101905.84;5028448;28;20475;-49
2023/04/15 11:33:47;;;;;;;4.80;1.25;;;;;;;24.16;33.17;101900.69;5032078;28;20040;-53